sensor_id;sensor_type;location;lat;lon;timestamp;P1;durP1;ratioP1;P2;durP2;ratioP2
81209;SDS011;70685;52.496;13.420;2023-08-31T00:01:31;5.53;;;4.82;;
81209;SDS011;70685;52.496;13.420;2023-08-31T00:04:00;14.75;;;9.27;;
81209;SDS011;70685;52.496;13.420;2023-08-31T00:06:26;4.53;;;4.13;;
81209;SDS011;70685;52.496;13.420;2023-08-31T00:08:53;4.00;;;3.75;;
81209;SDS011;70685;52.496;13.420;2023-08-31T00:11:22;3.95;;;3.75;;
81209;SDS011;70685;52.496;13.420;2023-08-31T00:13:48;3.45;;;3.25;;
81209;SDS011;70685;52.496;13.420;2023-08-31T00:16:14;3.72;;;3.53;;
81209;SDS011;70685;52.496;13.420;2023-08-31T00:18:40;4.75;;;4.45;;
81209;SDS011;70685;52.496;13.420;2023-08-31T00:21:10;3.40;;;3.20;;
81209;SDS011;70685;52.496;13.420;2023-08-31T00:23:35;3.70;;;3.50;;
81209;SDS011;70685;52.496;13.420;2023-08-31T00:26:03;4.32;;;3.40;;
81209;SDS011;70685;52.496;13.420;2023-08-31T00:28:30;3.47;;;3.20;;
81209;SDS011;70685;52.496;13.420;2023-08-31T00:31:00;3.90;;;3.70;;
81209;SDS011;70685;52.496;13.420;2023-08-31T00:33:30;3.70;;;3.38;;
81209;SDS011;70685;52.496;13.420;2023-08-31T00:36:01;3.38;;;3.17;;
81209;SDS011;70685;52.496;13.420;2023-08-31T00:38:30;3.72;;;3.53;;
81209;SDS011;70685;52.496;13.420;2023-08-31T00:40:56;3.45;;;3.25;;
81209;SDS011;70685;52.496;13.420;2023-08-31T00:43:24;3.78;;;3.58;;
81209;SDS011;70685;52.496;13.420;2023-08-31T00:45:54;4.03;;;3.73;;
81209;SDS011;70685;52.496;13.420;2023-08-31T00:48:23;3.50;;;3.20;;
81209;SDS011;70685;52.496;13.420;2023-08-31T00:50:49;3.53;;;3.22;;
81209;SDS011;70685;52.496;13.420;2023-08-31T00:53:15;3.65;;;3.45;;
81209;SDS011;70685;52.496;13.420;2023-08-31T00:55:43;3.28;;;3.08;;
81209;SDS011;70685;52.496;13.420;2023-08-31T00:58:12;4.25;;;3.22;;
81209;SDS011;70685;52.496;13.420;2023-08-31T01:03:12;3.30;;;3.08;;
81209;SDS011;70685;52.496;13.420;2023-08-31T01:05:49;3.35;;;3.05;;
81209;SDS011;70685;52.496;13.420;2023-08-31T01:08:22;4.25;;;3.95;;
81209;SDS011;70685;52.496;13.420;2023-08-31T01:13:24;2.97;;;2.88;;
81209;SDS011;70685;52.496;13.420;2023-08-31T01:15:56;3.10;;;3.00;;
81209;SDS011;70685;52.496;13.420;2023-08-31T01:18:25;3.03;;;2.83;;
81209;SDS011;70685;52.496;13.420;2023-08-31T01:24:07;3.10;;;2.90;;
81209;SDS011;70685;52.496;13.420;2023-08-31T01:26:29;4.88;;;3.72;;
81209;SDS011;70685;52.496;13.420;2023-08-31T01:28:57;3.83;;;3.53;;
81209;SDS011;70685;52.496;13.420;2023-08-31T01:31:24;3.28;;;3.17;;
81209;SDS011;70685;52.496;13.420;2023-08-31T01:33:50;3.22;;;3.03;;
81209;SDS011;70685;52.496;13.420;2023-08-31T01:36:20;3.63;;;2.95;;
81209;SDS011;70685;52.496;13.420;2023-08-31T01:38:54;3.13;;;2.92;;
81209;SDS011;70685;52.496;13.420;2023-08-31T01:41:28;3.40;;;3.20;;
81209;SDS011;70685;52.496;13.420;2023-08-31T01:43:58;3.10;;;2.97;;
81209;SDS011;70685;52.496;13.420;2023-08-31T01:46:25;3.05;;;2.92;;
81209;SDS011;70685;52.496;13.420;2023-08-31T01:48:52;3.58;;;3.38;;
81209;SDS011;70685;52.496;13.420;2023-08-31T01:51:19;3.00;;;2.90;;
81209;SDS011;70685;52.496;13.420;2023-08-31T01:53:45;3.40;;;3.20;;
81209;SDS011;70685;52.496;13.420;2023-08-31T01:56:11;3.97;;;3.67;;
81209;SDS011;70685;52.496;13.420;2023-08-31T01:58:36;3.22;;;3.03;;
81209;SDS011;70685;52.496;13.420;2023-08-31T02:01:02;3.70;;;3.50;;
81209;SDS011;70685;52.496;13.420;2023-08-31T02:03:27;3.85;;;3.15;;
81209;SDS011;70685;52.496;13.420;2023-08-31T02:05:53;4.07;;;3.80;;
81209;SDS011;70685;52.496;13.420;2023-08-31T02:08:19;3.33;;;3.13;;
81209;SDS011;70685;52.496;13.420;2023-08-31T02:10:49;3.83;;;3.30;;
81209;SDS011;70685;52.496;13.420;2023-08-31T02:13:21;3.00;;;2.80;;
81209;SDS011;70685;52.496;13.420;2023-08-31T02:15:50;3.00;;;2.88;;
81209;SDS011;70685;52.496;13.420;2023-08-31T02:18:17;3.22;;;3.03;;
81209;SDS011;70685;52.496;13.420;2023-08-31T02:20:42;2.83;;;2.63;;
81209;SDS011;70685;52.496;13.420;2023-08-31T02:23:08;2.60;;;2.50;;
81209;SDS011;70685;52.496;13.420;2023-08-31T02:25:37;2.25;;;2.13;;
81209;SDS011;70685;52.496;13.420;2023-08-31T02:28:03;2.72;;;2.63;;
81209;SDS011;70685;52.496;13.420;2023-08-31T02:30:31;2.50;;;2.40;;
81209;SDS011;70685;52.496;13.420;2023-08-31T02:32:56;2.70;;;2.50;;
81209;SDS011;70685;52.496;13.420;2023-08-31T02:35:25;3.58;;;2.53;;
81209;SDS011;70685;52.496;13.420;2023-08-31T02:37:52;2.88;;;2.70;;
81209;SDS011;70685;52.496;13.420;2023-08-31T02:40:20;2.25;;;2.15;;
81209;SDS011;70685;52.496;13.420;2023-08-31T02:42:46;3.03;;;2.58;;
81209;SDS011;70685;52.496;13.420;2023-08-31T02:47:46;2.55;;;2.38;;
81209;SDS011;70685;52.496;13.420;2023-08-31T02:50:12;2.65;;;2.45;;
81209;SDS011;70685;52.496;13.420;2023-08-31T02:52:37;2.42;;;2.30;;
81209;SDS011;70685;52.496;13.420;2023-08-31T02:55:03;2.58;;;2.40;;
81209;SDS011;70685;52.496;13.420;2023-08-31T02:57:29;2.25;;;2.15;;
81209;SDS011;70685;52.496;13.420;2023-08-31T02:59:57;3.15;;;2.60;;
81209;SDS011;70685;52.496;13.420;2023-08-31T03:02:23;2.10;;;2.00;;
81209;SDS011;70685;52.496;13.420;2023-08-31T03:04:49;2.25;;;2.10;;
81209;SDS011;70685;52.496;13.420;2023-08-31T03:07:14;2.25;;;2.15;;
81209;SDS011;70685;52.496;13.420;2023-08-31T03:09:40;6.97;;;2.33;;
81209;SDS011;70685;52.496;13.420;2023-08-31T03:12:06;2.42;;;2.33;;
81209;SDS011;70685;52.496;13.420;2023-08-31T03:14:32;2.80;;;2.25;;
81209;SDS011;70685;52.496;13.420;2023-08-31T03:17:00;2.33;;;2.22;;
81209;SDS011;70685;52.496;13.420;2023-08-31T03:19:26;2.43;;;2.30;;
81209;SDS011;70685;52.496;13.420;2023-08-31T03:21:56;3.10;;;2.17;;
81209;SDS011;70685;52.496;13.420;2023-08-31T03:24:23;2.50;;;2.40;;
81209;SDS011;70685;52.496;13.420;2023-08-31T03:26:49;1.98;;;1.88;;
81209;SDS011;70685;52.496;13.420;2023-08-31T03:29:17;2.42;;;2.33;;
81209;SDS011;70685;52.496;13.420;2023-08-31T03:31:42;2.67;;;2.58;;
81209;SDS011;70685;52.496;13.420;2023-08-31T03:34:08;2.33;;;2.22;;
81209;SDS011;70685;52.496;13.420;2023-08-31T03:36:34;2.30;;;2.10;;
81209;SDS011;70685;52.496;13.420;2023-08-31T03:39:02;2.10;;;2.00;;
81209;SDS011;70685;52.496;13.420;2023-08-31T03:41:30;2.45;;;2.35;;
81209;SDS011;70685;52.496;13.420;2023-08-31T03:43:55;2.60;;;2.40;;
81209;SDS011;70685;52.496;13.420;2023-08-31T03:46:21;2.33;;;2.20;;
81209;SDS011;70685;52.496;13.420;2023-08-31T03:48:46;3.17;;;2.97;;
81209;SDS011;70685;52.496;13.420;2023-08-31T03:51:14;2.70;;;2.60;;
81209;SDS011;70685;52.496;13.420;2023-08-31T03:53:42;2.58;;;2.47;;
81209;SDS011;70685;52.496;13.420;2023-08-31T03:56:09;3.25;;;2.05;;
81209;SDS011;70685;52.496;13.420;2023-08-31T03:58:34;3.33;;;3.03;;
81209;SDS011;70685;52.496;13.420;2023-08-31T04:01:00;3.20;;;3.00;;
81209;SDS011;70685;52.496;13.420;2023-08-31T04:03:26;2.88;;;2.67;;
81209;SDS011;70685;52.496;13.420;2023-08-31T04:05:54;3.25;;;2.95;;
81209;SDS011;70685;52.496;13.420;2023-08-31T04:08:22;3.53;;;3.22;;
81209;SDS011;70685;52.496;13.420;2023-08-31T04:10:48;3.97;;;3.40;;
81209;SDS011;70685;52.496;13.420;2023-08-31T04:13:16;4.03;;;3.70;;
81209;SDS011;70685;52.496;13.420;2023-08-31T04:15:44;4.65;;;4.30;;
81209;SDS011;70685;52.496;13.420;2023-08-31T04:18:10;3.63;;;3.33;;
81209;SDS011;70685;52.496;13.420;2023-08-31T04:20:38;4.70;;;4.30;;
81209;SDS011;70685;52.496;13.420;2023-08-31T04:23:06;4.35;;;4.05;;
81209;SDS011;70685;52.496;13.420;2023-08-31T04:25:34;4.60;;;4.20;;
81209;SDS011;70685;52.496;13.420;2023-08-31T04:28:00;4.63;;;4.25;;
81209;SDS011;70685;52.496;13.420;2023-08-31T04:30:28;5.38;;;4.25;;
81209;SDS011;70685;52.496;13.420;2023-08-31T04:32:54;4.88;;;4.57;;
81209;SDS011;70685;52.496;13.420;2023-08-31T04:35:21;5.38;;;5.07;;
81209;SDS011;70685;52.496;13.420;2023-08-31T04:37:49;5.70;;;5.15;;
81209;SDS011;70685;52.496;13.420;2023-08-31T04:40:17;6.07;;;5.50;;
81209;SDS011;70685;52.496;13.420;2023-08-31T04:42:43;5.82;;;5.32;;
81209;SDS011;70685;52.496;13.420;2023-08-31T04:45:09;5.72;;;5.32;;
81209;SDS011;70685;52.496;13.420;2023-08-31T04:47:37;5.28;;;4.97;;
81209;SDS011;70685;52.496;13.420;2023-08-31T04:50:03;5.85;;;5.38;;
81209;SDS011;70685;52.496;13.420;2023-08-31T04:52:31;5.30;;;5.00;;
81209;SDS011;70685;52.496;13.420;2023-08-31T04:55:00;6.63;;;5.90;;
81209;SDS011;70685;52.496;13.420;2023-08-31T04:57:33;6.90;;;6.30;;
81209;SDS011;70685;52.496;13.420;2023-08-31T04:59:59;5.80;;;5.40;;
81209;SDS011;70685;52.496;13.420;2023-08-31T05:02:28;7.43;;;6.57;;
81209;SDS011;70685;52.496;13.420;2023-08-31T05:04:54;6.68;;;6.07;;
81209;SDS011;70685;52.496;13.420;2023-08-31T05:07:24;6.68;;;6.15;;
81209;SDS011;70685;52.496;13.420;2023-08-31T05:09:50;7.00;;;6.40;;
81209;SDS011;70685;52.496;13.420;2023-08-31T05:12:22;6.68;;;6.07;;
81209;SDS011;70685;52.496;13.420;2023-08-31T05:14:48;7.10;;;6.40;;
81209;SDS011;70685;52.496;13.420;2023-08-31T05:17:14;6.47;;;5.97;;
81209;SDS011;70685;52.496;13.420;2023-08-31T05:19:42;6.40;;;5.85;;
81209;SDS011;70685;52.496;13.420;2023-08-31T05:22:07;6.93;;;6.43;;
81209;SDS011;70685;52.496;13.420;2023-08-31T05:24:33;5.75;;;5.43;;
81209;SDS011;70685;52.496;13.420;2023-08-31T05:27:01;6.32;;;5.82;;
81209;SDS011;70685;52.496;13.420;2023-08-31T05:29:29;6.30;;;5.70;;
81209;SDS011;70685;52.496;13.420;2023-08-31T05:31:54;6.43;;;5.93;;
81209;SDS011;70685;52.496;13.420;2023-08-31T05:34:22;6.72;;;6.03;;
81209;SDS011;70685;52.496;13.420;2023-08-31T05:36:49;7.03;;;6.43;;
81209;SDS011;70685;52.496;13.420;2023-08-31T05:39:15;7.03;;;6.53;;
81209;SDS011;70685;52.496;13.420;2023-08-31T05:41:43;7.60;;;7.00;;
81209;SDS011;70685;52.496;13.420;2023-08-31T05:44:09;8.75;;;7.35;;
81209;SDS011;70685;52.496;13.420;2023-08-31T05:46:35;8.13;;;7.32;;
81209;SDS011;70685;52.496;13.420;2023-08-31T05:49:03;8.20;;;7.45;;
81209;SDS011;70685;52.496;13.420;2023-08-31T05:51:29;9.88;;;7.80;;
81209;SDS011;70685;52.496;13.420;2023-08-31T05:53:54;11.18;;;7.22;;
81209;SDS011;70685;52.496;13.420;2023-08-31T05:56:22;8.93;;;8.02;;
81209;SDS011;70685;52.496;13.420;2023-08-31T05:58:48;8.80;;;7.82;;
81209;SDS011;70685;52.496;13.420;2023-08-31T06:01:19;8.85;;;7.93;;
81209;SDS011;70685;52.496;13.420;2023-08-31T06:03:45;8.43;;;7.28;;
81209;SDS011;70685;52.496;13.420;2023-08-31T06:06:13;6.70;;;6.20;;
81209;SDS011;70685;52.496;13.420;2023-08-31T06:08:39;6.50;;;5.90;;
81209;SDS011;70685;52.496;13.420;2023-08-31T06:13:33;9.40;;;6.97;;
81209;SDS011;70685;52.496;13.420;2023-08-31T06:16:04;5.95;;;5.55;;
81209;SDS011;70685;52.496;13.420;2023-08-31T06:18:32;6.85;;;6.30;;
81209;SDS011;70685;52.496;13.420;2023-08-31T06:20:58;8.98;;;6.75;;
81209;SDS011;70685;52.496;13.420;2023-08-31T06:23:23;7.00;;;6.40;;
81209;SDS011;70685;52.496;13.420;2023-08-31T06:25:49;6.65;;;6.25;;
81209;SDS011;70685;52.496;13.420;2023-08-31T06:28:15;6.82;;;6.32;;
81209;SDS011;70685;52.496;13.420;2023-08-31T06:30:41;8.65;;;6.05;;
81209;SDS011;70685;52.496;13.420;2023-08-31T06:33:12;6.57;;;5.97;;
81209;SDS011;70685;52.496;13.420;2023-08-31T06:35:46;6.97;;;5.93;;
81209;SDS011;70685;52.496;13.420;2023-08-31T06:38:16;8.25;;;6.50;;
81209;SDS011;70685;52.496;13.420;2023-08-31T06:40:47;7.20;;;6.60;;
81209;SDS011;70685;52.496;13.420;2023-08-31T06:43:13;6.70;;;6.18;;
81209;SDS011;70685;52.496;13.420;2023-08-31T06:45:38;6.90;;;6.28;;
81209;SDS011;70685;52.496;13.420;2023-08-31T06:48:05;6.47;;;5.97;;
81209;SDS011;70685;52.496;13.420;2023-08-31T06:50:33;7.68;;;6.43;;
81209;SDS011;70685;52.496;13.420;2023-08-31T06:53:00;10.13;;;6.65;;
81209;SDS011;70685;52.496;13.420;2023-08-31T06:55:26;7.30;;;6.57;;
81209;SDS011;70685;52.496;13.420;2023-08-31T06:57:54;6.85;;;6.00;;
81209;SDS011;70685;52.496;13.420;2023-08-31T07:00:22;6.95;;;5.78;;
81209;SDS011;70685;52.496;13.420;2023-08-31T07:02:48;7.18;;;5.20;;
81209;SDS011;70685;52.496;13.420;2023-08-31T07:05:13;5.70;;;5.20;;
81209;SDS011;70685;52.496;13.420;2023-08-31T07:07:39;5.40;;;5.00;;
81209;SDS011;70685;52.496;13.420;2023-08-31T07:10:05;10.75;;;5.32;;
81209;SDS011;70685;52.496;13.420;2023-08-31T07:12:32;4.70;;;4.40;;
81209;SDS011;70685;52.496;13.420;2023-08-31T07:14:57;5.10;;;4.70;;
81209;SDS011;70685;52.496;13.420;2023-08-31T07:17:25;5.45;;;5.07;;
81209;SDS011;70685;52.496;13.420;2023-08-31T07:19:52;5.18;;;4.70;;
81209;SDS011;70685;52.496;13.420;2023-08-31T07:22:17;6.40;;;5.15;;
81209;SDS011;70685;52.496;13.420;2023-08-31T07:24:43;6.65;;;4.80;;
81209;SDS011;70685;52.496;13.420;2023-08-31T07:27:10;4.55;;;4.15;;
81209;SDS011;70685;52.496;13.420;2023-08-31T07:29:35;5.00;;;4.50;;
81209;SDS011;70685;52.496;13.420;2023-08-31T07:32:03;4.15;;;3.90;;
81209;SDS011;70685;52.496;13.420;2023-08-31T07:34:34;5.55;;;4.75;;
81209;SDS011;70685;52.496;13.420;2023-08-31T07:37:00;4.65;;;4.25;;
81209;SDS011;70685;52.496;13.420;2023-08-31T07:39:25;4.85;;;4.43;;
81209;SDS011;70685;52.496;13.420;2023-08-31T07:41:52;4.75;;;4.13;;
81209;SDS011;70685;52.496;13.420;2023-08-31T07:44:19;4.75;;;3.90;;
81209;SDS011;70685;52.496;13.420;2023-08-31T07:46:51;6.43;;;3.95;;
81209;SDS011;70685;52.496;13.420;2023-08-31T07:49:21;4.35;;;3.95;;
81209;SDS011;70685;52.496;13.420;2023-08-31T07:51:47;4.00;;;3.70;;
81209;SDS011;70685;52.496;13.420;2023-08-31T07:54:19;5.60;;;3.80;;
81209;SDS011;70685;52.496;13.420;2023-08-31T07:56:47;4.90;;;4.47;;
81209;SDS011;70685;52.496;13.420;2023-08-31T07:59:13;4.53;;;3.60;;
81209;SDS011;70685;52.496;13.420;2023-08-31T08:01:42;3.60;;;3.15;;
81209;SDS011;70685;52.496;13.420;2023-08-31T08:04:08;3.42;;;3.15;;
81209;SDS011;70685;52.496;13.420;2023-08-31T08:06:35;3.30;;;2.63;;
81209;SDS011;70685;52.496;13.420;2023-08-31T08:09:03;4.32;;;2.80;;
81209;SDS011;70685;52.496;13.420;2023-08-31T08:11:29;5.32;;;2.70;;
81209;SDS011;70685;52.496;13.420;2023-08-31T08:13:56;3.92;;;2.65;;
81209;SDS011;70685;52.496;13.420;2023-08-31T08:16:22;2.40;;;2.20;;
81209;SDS011;70685;52.496;13.420;2023-08-31T08:18:50;2.67;;;2.22;;
81209;SDS011;70685;52.496;13.420;2023-08-31T08:21:16;2.20;;;2.00;;
81209;SDS011;70685;52.496;13.420;2023-08-31T08:23:41;5.47;;;2.58;;
81209;SDS011;70685;52.496;13.420;2023-08-31T08:26:07;6.57;;;2.22;;
81209;SDS011;70685;52.496;13.420;2023-08-31T08:28:33;2.58;;;2.13;;
81209;SDS011;70685;52.496;13.420;2023-08-31T08:31:06;1.98;;;1.80;;
81209;SDS011;70685;52.496;13.420;2023-08-31T08:33:32;3.42;;;2.65;;
81209;SDS011;70685;52.496;13.420;2023-08-31T08:35:58;3.78;;;3.00;;
81209;SDS011;70685;52.496;13.420;2023-08-31T08:38:26;3.85;;;2.03;;
81209;SDS011;70685;52.496;13.420;2023-08-31T08:40:52;4.27;;;2.03;;
81209;SDS011;70685;52.496;13.420;2023-08-31T08:43:19;3.50;;;2.47;;
81209;SDS011;70685;52.496;13.420;2023-08-31T08:45:52;3.15;;;2.90;;
81209;SDS011;70685;52.496;13.420;2023-08-31T08:48:21;2.17;;;1.73;;
81209;SDS011;70685;52.496;13.420;2023-08-31T08:50:48;3.75;;;2.45;;
81209;SDS011;70685;52.496;13.420;2023-08-31T08:53:14;5.35;;;2.35;;
81209;SDS011;70685;52.496;13.420;2023-08-31T08:55:43;4.70;;;1.55;;
81209;SDS011;70685;52.496;13.420;2023-08-31T08:58:11;3.95;;;2.28;;
81209;SDS011;70685;52.496;13.420;2023-08-31T09:00:38;3.25;;;1.50;;
81209;SDS011;70685;52.496;13.420;2023-08-31T09:03:07;3.58;;;2.20;;
81209;SDS011;70685;52.496;13.420;2023-08-31T09:05:33;2.08;;;1.63;;
81209;SDS011;70685;52.496;13.420;2023-08-31T09:10:37;5.47;;;1.80;;
81209;SDS011;70685;52.496;13.420;2023-08-31T09:13:12;5.47;;;1.73;;
81209;SDS011;70685;52.496;13.420;2023-08-31T09:15:46;3.00;;;2.45;;
81209;SDS011;70685;52.496;13.420;2023-08-31T09:20:53;4.28;;;2.97;;
81209;SDS011;70685;52.496;13.420;2023-08-31T09:23:21;1.98;;;1.35;;
81209;SDS011;70685;52.496;13.420;2023-08-31T09:25:54;2.20;;;1.58;;
81209;SDS011;70685;52.496;13.420;2023-08-31T09:28:24;4.43;;;1.73;;
81209;SDS011;70685;52.496;13.420;2023-08-31T09:30:52;4.70;;;1.55;;
81209;SDS011;70685;52.496;13.420;2023-08-31T09:33:18;2.78;;;2.00;;
81209;SDS011;70685;52.496;13.420;2023-08-31T09:36:19;2.70;;;2.00;;
81209;SDS011;70685;52.496;13.420;2023-08-31T09:38:43;2.10;;;1.63;;
81209;SDS011;70685;52.496;13.420;2023-08-31T09:41:09;2.45;;;1.48;;
81209;SDS011;70685;52.496;13.420;2023-08-31T09:43:35;6.88;;;1.80;;
81209;SDS011;70685;52.496;13.420;2023-08-31T09:46:03;3.13;;;1.52;;
81209;SDS011;70685;52.496;13.420;2023-08-31T09:48:35;1.20;;;1.10;;
81209;SDS011;70685;52.496;13.420;2023-08-31T09:51:04;1.63;;;1.17;;
81209;SDS011;70685;52.496;13.420;2023-08-31T09:53:30;2.92;;;1.23;;
81209;SDS011;70685;52.496;13.420;2023-08-31T09:56:00;2.53;;;1.30;;
81209;SDS011;70685;52.496;13.420;2023-08-31T09:58:27;2.78;;;1.50;;
81209;SDS011;70685;52.496;13.420;2023-08-31T10:00:56;1.23;;;0.93;;
81209;SDS011;70685;52.496;13.420;2023-08-31T10:03:22;1.65;;;0.95;;
81209;SDS011;70685;52.496;13.420;2023-08-31T10:08:16;1.50;;;1.10;;
81209;SDS011;70685;52.496;13.420;2023-08-31T10:10:45;3.30;;;1.67;;
81209;SDS011;70685;52.496;13.420;2023-08-31T10:13:11;1.30;;;1.20;;
81209;SDS011;70685;52.496;13.420;2023-08-31T10:15:43;2.10;;;1.10;;
81209;SDS011;70685;52.496;13.420;2023-08-31T10:18:11;2.25;;;1.48;;
81209;SDS011;70685;52.496;13.420;2023-08-31T10:20:41;1.15;;;0.85;;
81209;SDS011;70685;52.496;13.420;2023-08-31T10:23:08;3.05;;;0.98;;
81209;SDS011;70685;52.496;13.420;2023-08-31T10:28:17;1.20;;;1.10;;
81209;SDS011;70685;52.496;13.420;2023-08-31T10:31:15;1.73;;;1.05;;
81209;SDS011;70685;52.496;13.420;2023-08-31T10:33:44;1.95;;;1.17;;
81209;SDS011;70685;52.496;13.420;2023-08-31T10:36:22;1.58;;;1.13;;
81209;SDS011;70685;52.496;13.420;2023-08-31T10:41:29;3.55;;;1.55;;
81209;SDS011;70685;52.496;13.420;2023-08-31T10:43:58;2.30;;;1.27;;
81209;SDS011;70685;52.496;13.420;2023-08-31T10:51:38;4.57;;;2.47;;
81209;SDS011;70685;52.496;13.420;2023-08-31T10:59:53;4.43;;;2.08;;
81209;SDS011;70685;52.496;13.420;2023-08-31T11:05:07;4.10;;;2.45;;
81209;SDS011;70685;52.496;13.420;2023-08-31T11:07:42;3.97;;;2.40;;
81209;SDS011;70685;52.496;13.420;2023-08-31T11:10:14;5.90;;;2.35;;
81209;SDS011;70685;52.496;13.420;2023-08-31T11:12:40;3.42;;;2.10;;
81209;SDS011;70685;52.496;13.420;2023-08-31T11:15:11;2.25;;;2.05;;
81209;SDS011;70685;52.496;13.420;2023-08-31T11:17:39;3.00;;;2.50;;
81209;SDS011;70685;52.496;13.420;2023-08-31T11:20:08;1.90;;;1.80;;
81209;SDS011;70685;52.496;13.420;2023-08-31T11:22:39;3.78;;;2.45;;
81209;SDS011;70685;52.496;13.420;2023-08-31T11:25:06;2.88;;;1.80;;
81209;SDS011;70685;52.496;13.420;2023-08-31T11:27:38;1.85;;;1.70;;
81209;SDS011;70685;52.496;13.420;2023-08-31T11:30:14;3.63;;;1.52;;
81209;SDS011;70685;52.496;13.420;2023-08-31T11:32:50;2.20;;;1.47;;
81209;SDS011;70685;52.496;13.420;2023-08-31T11:35:17;3.42;;;1.60;;
81209;SDS011;70685;52.496;13.420;2023-08-31T11:37:44;3.08;;;1.50;;
81209;SDS011;70685;52.496;13.420;2023-08-31T11:40:10;1.95;;;1.63;;
81209;SDS011;70685;52.496;13.420;2023-08-31T11:42:36;1.92;;;1.33;;
81209;SDS011;70685;52.496;13.420;2023-08-31T11:45:02;3.13;;;1.63;;
81209;SDS011;70685;52.496;13.420;2023-08-31T11:47:30;3.03;;;1.83;;
81209;SDS011;70685;52.496;13.420;2023-08-31T11:49:59;1.40;;;1.30;;
81209;SDS011;70685;52.496;13.420;2023-08-31T11:52:30;2.65;;;1.17;;
81209;SDS011;70685;52.496;13.420;2023-08-31T11:55:00;1.83;;;1.25;;
81209;SDS011;70685;52.496;13.420;2023-08-31T11:57:29;2.63;;;1.15;;
81209;SDS011;70685;52.496;13.420;2023-08-31T11:59:54;3.42;;;1.52;;
81209;SDS011;70685;52.496;13.420;2023-08-31T12:02:23;5.10;;;1.65;;
81209;SDS011;70685;52.496;13.420;2023-08-31T12:04:57;43.95;;;3.80;;
81209;SDS011;70685;52.496;13.420;2023-08-31T12:07:22;92.03;;;4.88;;
81209;SDS011;70685;52.496;13.420;2023-08-31T12:09:50;6.45;;;2.20;;
81209;SDS011;70685;52.496;13.420;2023-08-31T12:12:17;4.50;;;2.33;;
81209;SDS011;70685;52.496;13.420;2023-08-31T12:14:45;2.15;;;1.90;;
81209;SDS011;70685;52.496;13.420;2023-08-31T12:17:13;2.60;;;2.00;;
81209;SDS011;70685;52.496;13.420;2023-08-31T12:19:44;3.08;;;1.73;;
81209;SDS011;70685;52.496;13.420;2023-08-31T12:22:12;2.42;;;2.20;;
81209;SDS011;70685;52.496;13.420;2023-08-31T12:24:43;2.50;;;1.70;;
81209;SDS011;70685;52.496;13.420;2023-08-31T12:27:08;1.85;;;1.58;;
81209;SDS011;70685;52.496;13.420;2023-08-31T12:29:36;2.95;;;1.50;;
81209;SDS011;70685;52.496;13.420;2023-08-31T12:32:04;3.28;;;1.73;;
81209;SDS011;70685;52.496;13.420;2023-08-31T12:34:30;3.50;;;1.80;;
81209;SDS011;70685;52.496;13.420;2023-08-31T12:36:58;2.95;;;1.70;;
81209;SDS011;70685;52.496;13.420;2023-08-31T12:39:26;2.10;;;1.95;;
81209;SDS011;70685;52.496;13.420;2023-08-31T12:41:51;3.78;;;1.98;;
81209;SDS011;70685;52.496;13.420;2023-08-31T12:44:19;3.37;;;1.90;;
81209;SDS011;70685;52.496;13.420;2023-08-31T12:46:45;2.10;;;2.00;;
81209;SDS011;70685;52.496;13.420;2023-08-31T12:49:11;3.45;;;2.22;;
81209;SDS011;70685;52.496;13.420;2023-08-31T12:51:36;2.55;;;2.30;;
81209;SDS011;70685;52.496;13.420;2023-08-31T12:54:02;3.80;;;1.85;;
81209;SDS011;70685;52.496;13.420;2023-08-31T12:56:28;2.00;;;1.90;;
81209;SDS011;70685;52.496;13.420;2023-08-31T12:58:54;1.88;;;1.65;;
81209;SDS011;70685;52.496;13.420;2023-08-31T13:01:21;1.15;;;1.05;;
81209;SDS011;70685;52.496;13.420;2023-08-31T13:03:50;3.30;;;0.98;;
81209;SDS011;70685;52.496;13.420;2023-08-31T13:06:17;1.27;;;1.20;;
81209;SDS011;70685;52.496;13.420;2023-08-31T13:08:43;2.22;;;1.25;;
81209;SDS011;70685;52.496;13.420;2023-08-31T13:11:10;1.75;;;1.10;;
81209;SDS011;70685;52.496;13.420;2023-08-31T13:13:41;1.20;;;1.10;;
81209;SDS011;70685;52.496;13.420;2023-08-31T13:16:07;1.77;;;1.30;;
81209;SDS011;70685;52.496;13.420;2023-08-31T13:18:34;1.95;;;1.30;;
81209;SDS011;70685;52.496;13.420;2023-08-31T13:21:02;1.42;;;1.25;;
81209;SDS011;70685;52.496;13.420;2023-08-31T13:23:28;0.82;;;0.82;;
81209;SDS011;70685;52.496;13.420;2023-08-31T13:25:56;3.50;;;1.15;;
81209;SDS011;70685;52.496;13.420;2023-08-31T13:28:22;1.40;;;1.30;;
81209;SDS011;70685;52.496;13.420;2023-08-31T13:30:47;1.23;;;1.20;;
81209;SDS011;70685;52.496;13.420;2023-08-31T13:33:13;5.55;;;1.13;;
81209;SDS011;70685;52.496;13.420;2023-08-31T13:35:42;1.00;;;1.00;;
81209;SDS011;70685;52.496;13.420;2023-08-31T13:38:08;2.38;;;1.58;;
81209;SDS011;70685;52.496;13.420;2023-08-31T13:40:36;4.85;;;1.58;;
81209;SDS011;70685;52.496;13.420;2023-08-31T13:43:02;2.50;;;1.40;;
81209;SDS011;70685;52.496;13.420;2023-08-31T13:45:28;1.45;;;1.35;;
81209;SDS011;70685;52.496;13.420;2023-08-31T13:47:58;2.45;;;1.20;;
81209;SDS011;70685;52.496;13.420;2023-08-31T13:50:25;2.35;;;1.40;;
81209;SDS011;70685;52.496;13.420;2023-08-31T13:52:51;1.77;;;1.30;;
81209;SDS011;70685;52.496;13.420;2023-08-31T13:55:17;1.42;;;1.33;;
81209;SDS011;70685;52.496;13.420;2023-08-31T13:57:43;3.47;;;1.35;;
81209;SDS011;70685;52.496;13.420;2023-08-31T14:00:11;1.40;;;1.30;;
81209;SDS011;70685;52.496;13.420;2023-08-31T14:02:37;1.38;;;1.27;;
81209;SDS011;70685;52.496;13.420;2023-08-31T14:05:04;1.35;;;1.23;;
81209;SDS011;70685;52.496;13.420;2023-08-31T14:07:32;1.90;;;1.17;;
81209;SDS011;70685;52.496;13.420;2023-08-31T14:09:57;1.38;;;1.27;;
81209;SDS011;70685;52.496;13.420;2023-08-31T14:12:23;1.50;;;1.40;;
81209;SDS011;70685;52.496;13.420;2023-08-31T14:14:50;2.42;;;1.45;;
81209;SDS011;70685;52.496;13.420;2023-08-31T14:17:16;1.63;;;1.52;;
81209;SDS011;70685;52.496;13.420;2023-08-31T14:19:42;2.25;;;1.20;;
81209;SDS011;70685;52.496;13.420;2023-08-31T14:22:08;2.70;;;1.50;;
81209;SDS011;70685;52.496;13.420;2023-08-31T14:24:36;2.25;;;1.63;;
81209;SDS011;70685;52.496;13.420;2023-08-31T14:27:05;1.75;;;1.15;;
81209;SDS011;70685;52.496;13.420;2023-08-31T14:29:31;0.98;;;0.98;;
81209;SDS011;70685;52.496;13.420;2023-08-31T14:31:57;0.88;;;0.80;;
81209;SDS011;70685;52.496;13.420;2023-08-31T14:34:22;4.25;;;1.00;;
81209;SDS011;70685;52.496;13.420;2023-08-31T14:36:50;1.02;;;0.93;;
81209;SDS011;70685;52.496;13.420;2023-08-31T14:39:15;0.63;;;0.63;;
81209;SDS011;70685;52.496;13.420;2023-08-31T14:41:42;0.77;;;0.75;;
81209;SDS011;70685;52.496;13.420;2023-08-31T14:44:10;0.65;;;0.40;;
81209;SDS011;70685;52.496;13.420;2023-08-31T14:46:38;0.60;;;0.60;;
81209;SDS011;70685;52.496;13.420;2023-08-31T14:49:04;0.65;;;0.50;;
81209;SDS011;70685;52.496;13.420;2023-08-31T14:51:30;0.60;;;0.60;;
81209;SDS011;70685;52.496;13.420;2023-08-31T14:53:56;0.50;;;0.50;;
81209;SDS011;70685;52.496;13.420;2023-08-31T14:56:24;0.82;;;0.75;;
81209;SDS011;70685;52.496;13.420;2023-08-31T14:58:52;2.13;;;0.70;;
81209;SDS011;70685;52.496;13.420;2023-08-31T15:01:20;0.60;;;0.60;;
81209;SDS011;70685;52.496;13.420;2023-08-31T15:03:46;1.05;;;0.95;;
81209;SDS011;70685;52.496;13.420;2023-08-31T15:06:12;0.60;;;0.60;;
81209;SDS011;70685;52.496;13.420;2023-08-31T15:08:39;3.97;;;1.20;;
81209;SDS011;70685;52.496;13.420;2023-08-31T15:11:09;1.30;;;1.20;;
81209;SDS011;70685;52.496;13.420;2023-08-31T15:13:37;4.22;;;3.92;;
81209;SDS011;70685;52.496;13.420;2023-08-31T15:16:03;1.00;;;1.00;;